Time;durP1;ratioP1;P1;durP2;ratioP2;P2;SDS_P1;SDS_P2;PMS_P1;PMS_P2;Temp;Humidity;BMP_temperature;BMP_pressure;BME280_temperature;BME280_humidity;BME280_pressure;Samples;Min_cycle;Max_cycle;Signal;HPM_P1;HPM_P2
2022/01/11 00:00:25;;;;;;;141.73;18.88;;;;;;;-0.76;100.00;102984.31;4961078;28;20097;-70
2022/01/11 00:02:52;;;;;;;217.90;24.85;;;;;;;-0.74;100.00;102997.53;4960821;28;20112;-70
2022/01/11 00:05:47;;;;;;;165.68;24.35;;;;;;;-0.81;100.00;102998.34;4980353;28;20030;-70
2022/01/11 00:08:13;;;;;;;;;;;;;;;-0.68;100.00;103004.56;4971792;28;20026;-70
2022/01/11 00:10:51;;;;;;;141.60;18.45;;;;;;;-0.64;100.00;103001.06;4966504;28;19925;-70
2022/01/11 00:13:17;;;;;;;166.77;20.27;;;;;;;-0.77;100.00;103013.34;4968474;28;20038;-69
2022/01/11 00:15:43;;;;;;;326.63;33.22;;;;;;;-0.71;100.00;102997.53;4963711;28;20050;-70
2022/01/11 00:18:08;;;;;;;286.20;29.17;;;;;;;-0.52;100.00;103005.50;4982771;28;20034;-70
2022/01/11 00:20:36;;;;;;;364.38;39.78;;;;;;;-0.69;100.00;103000.16;4983358;28;20053;-70
2022/01/11 00:25:28;;;;;;;480.55;49.33;;;;;;;-0.65;100.00;103001.94;4975960;28;20019;-70
2022/01/11 00:27:53;;;;;;;267.80;28.95;;;;;;;-0.47;100.00;103011.69;4976579;28;20045;-70
2022/01/11 00:30:19;;;;;;;316.55;34.03;;;;;;;-0.61;100.00;103001.94;4977118;28;20038;-70
2022/01/11 00:32:47;;;;;;;249.68;29.08;;;;;;;-0.52;100.00;103006.38;4977353;28;20400;-70
2022/01/11 00:35:15;;;;;;;438.55;44.60;;;;;;;-0.31;100.00;103010.00;4977948;28;20026;-70
2022/01/11 00:37:41;;;;;;;370.90;39.92;;;;;;;-0.57;100.00;103005.50;4995797;28;20034;-70
2022/01/11 00:40:08;;;;;;;264.65;29.35;;;;;;;-0.69;100.00;103022.16;4978408;28;20040;-70
2022/01/11 00:42:34;;;;;;;328.00;36.08;;;;;;;-0.58;100.00;103026.59;4979834;28;20026;-70
2022/01/11 00:44:59;;;;;;;331.88;37.65;;;;;;;-0.57;100.00;103020.44;4965130;28;20025;-70
2022/01/11 00:47:24;;;;;;;306.35;31.83;;;;;;;-0.70;100.00;103012.50;4982716;28;20538;-70
2022/01/11 00:49:52;;;;;;;239.98;31.42;;;;;;;-0.48;100.00;103015.22;4967182;28;20540;-70
2022/01/11 00:52:17;;;;;;;326.92;38.83;;;;;;;-0.56;100.00;103009.00;4979566;28;20062;-70
2022/01/11 00:54:42;;;;;;;308.02;37.35;;;;;;;-0.56;100.00;103036.31;4980404;28;20129;-70
2022/01/11 00:57:08;;;;;;;422.20;46.65;;;;;;;-0.35;100.00;103047.81;4964859;28;20044;-70
2022/01/11 00:59:33;;;;;;;364.38;41.45;;;;;;;-0.33;100.00;103049.56;4982579;28;20038;-70
2022/01/11 01:01:59;;;;;;;348.13;37.33;;;;;;;-0.62;100.00;103039.78;4963123;28;20066;-70
2022/01/11 01:04:24;;;;;;;321.45;36.97;;;;;;;-0.46;100.00;103035.44;4980682;28;20393;-69
2022/01/11 01:06:50;;;;;;;298.10;31.70;;;;;;;-0.59;100.00;103038.91;4979321;28;20414;-70
2022/01/11 01:09:15;;;;;;;245.77;30.42;;;;;;;-0.59;100.00;103024.81;4967667;28;20026;-70
2022/01/11 01:11:43;;;;;;;486.80;53.90;;;;;;;-0.61;100.00;103032.75;4978572;28;20099;-70
2022/01/11 01:14:09;;;;;;;206.77;25.40;;;;;;;-0.60;100.00;103031.88;4971450;28;20121;-69
2022/01/11 01:16:34;;;;;;;317.08;33.67;;;;;;;-0.65;100.00;103042.41;4959705;28;20037;-69
2022/01/11 01:18:59;;;;;;;121.15;18.15;;;;;;;-0.69;100.00;103031.81;4996866;28;20174;-69
2022/01/11 01:21:25;;;;;;;249.52;30.42;;;;;;;-0.47;100.00;103046.00;4980768;28;20515;-69
2022/01/11 01:23:50;;;;;;;452.00;44.88;;;;;;;-0.62;100.00;103045.06;4980371;28;20034;-70
2022/01/11 01:26:17;;;;;;;415.83;40.25;;;;;;;-0.50;100.00;103035.44;4979549;28;20030;-69
2022/01/11 01:28:44;;;;;;;208.02;25.85;;;;;;;-0.64;100.00;103046.78;4965586;28;20026;-70
2022/01/11 01:31:09;;;;;;;178.68;22.35;;;;;;;-0.70;100.00;103036.25;4966464;28;20155;-69
2022/01/11 01:33:35;;;;;;;310.48;34.97;;;;;;;-0.73;100.00;103044.13;4977808;28;20030;-69
2022/01/11 01:36:07;;;;;;;331.42;37.55;;;;;;;-0.57;100.00;103050.38;4964987;28;20034;-69
2022/01/11 01:38:33;;;;;;;227.15;27.27;;;;;;;-0.80;100.00;103034.41;4961120;28;20030;-70
2022/01/11 01:41:09;;;;;;;261.02;27.27;;;;;;;-0.72;100.00;103043.25;4975813;28;20534;-69
2022/01/11 01:43:34;;;;;;;318.15;32.80;;;;;;;-0.74;100.00;103045.00;4963003;28;20307;-70
2022/01/11 01:46:00;;;;;;;338.02;38.40;;;;;;;-0.53;100.00;103043.34;4963883;28;20084;-70
2022/01/11 01:48:26;;;;;;;264.63;37.20;;;;;;;-0.71;100.00;103039.75;4978189;28;20026;-70
2022/01/11 01:50:52;;;;;;;333.25;40.33;;;;;;;-0.83;100.00;103058.13;4979593;28;20546;-70
2022/01/11 01:53:18;;;;;;;239.63;32.60;;;;;;;-0.56;100.00;103053.88;4977055;28;20034;-70
2022/01/11 01:55:45;;;;;;;327.98;43.58;;;;;;;-0.96;100.00;103041.34;4961941;28;20452;-71
2022/01/11 01:58:11;;;;;;;162.82;23.38;;;;;;;-0.84;100.00;103065.19;4976043;28;20077;-70
2022/01/11 02:00:46;;;;;;;233.48;29.08;;;;;;;-1.18;100.00;103059.69;4962469;28;20031;-70
2022/01/11 02:03:15;;;;;;;334.65;39.95;;;;;;;-0.89;100.00;103064.28;4965797;28;20041;-70
2022/01/11 02:05:41;;;;;;;102.43;16.05;;;;;;;-1.12;100.00;103067.66;4980276;28;20555;-70
2022/01/11 02:08:07;;;;;;;234.20;30.15;;;;;;;-1.07;100.00;103065.03;4963190;28;20030;-69
2022/01/11 02:10:34;;;;;;;258.77;33.80;;;;;;;-1.32;100.00;103053.44;4962117;28;20395;-70
2022/01/11 02:13:00;;;;;;;302.02;39.95;;;;;;;-0.80;100.00;103061.69;4979185;28;20186;-70
2022/01/11 02:15:26;;;;;;;173.57;27.63;;;;;;;-0.96;100.00;103068.63;4976480;28;20544;-70
2022/01/11 02:17:52;;;;;;;266.75;37.63;;;;;;;-0.89;100.00;103055.47;4976000;28;20440;-70
2022/01/11 02:20:17;;;;;;;285.25;42.60;;;;;;;-0.79;100.00;103063.44;4961679;28;20059;-70
2022/01/11 02:22:42;;;;;;;307.88;45.47;;;;;;;-0.63;100.00;103069.66;4978772;28;20034;-70
2022/01/11 02:25:08;;;;;;;283.25;38.85;;;;;;;-0.89;100.00;103053.72;4974100;28;20097;-70
2022/01/11 02:27:34;;;;;;;243.00;35.97;;;;;;;-0.93;100.00;103059.84;4976835;28;20274;-70
2022/01/11 02:30:00;;;;;;;270.13;35.10;;;;;;;-1.07;100.00;103081.75;4978250;28;20027;-70
2022/01/11 02:32:25;;;;;;;240.05;33.72;;;;;;;-1.09;100.00;103058.84;4978774;28;20053;-70
2022/01/11 02:34:50;;;;;;;248.55;35.28;;;;;;;-1.03;100.00;103061.53;4979046;28;20184;-72
2022/01/11 02:37:15;;;;;;;215.43;33.92;;;;;;;-1.19;100.00;103063.19;4981123;28;20549;-72
2022/01/11 02:39:45;;;;;;;312.15;47.90;;;;;;;-0.95;100.00;103056.31;4979769;28;20026;-70
2022/01/11 02:42:10;;;;;;;212.75;33.22;;;;;;;-1.39;100.00;103074.47;4978355;28;20034;-70
2022/01/11 02:44:35;;;;;;;223.98;33.50;;;;;;;-1.19;100.00;103078.13;4978366;28;20061;-70
2022/01/11 02:47:01;;;;;;;195.23;28.50;;;;;;;-1.11;100.00;103090.50;4982462;28;20037;-70
2022/01/11 02:49:26;;;;;;;148.10;22.13;;;;;;;-0.96;100.00;103092.38;4983069;28;20033;-70
2022/01/11 02:51:52;;;;;;;207.52;30.98;;;;;;;-0.95;100.00;103090.59;4977111;28;20026;-70
2022/01/11 02:54:17;;;;;;;200.20;31.27;;;;;;;-1.16;100.00;103081.66;4979793;28;20429;-70
2022/01/11 02:56:43;;;;;;;148.77;26.65;;;;;;;-1.10;100.00;103070.28;4978507;28;20487;-70
2022/01/11 02:59:10;;;;;;;199.43;34.50;;;;;;;-1.11;100.00;103079.97;4981962;28;20646;-72
2022/01/11 03:01:35;;;;;;;177.35;24.90;;;;;;;-1.15;100.00;103064.97;4974851;28;20637;-72
2022/01/11 03:04:01;;;;;;;205.57;29.13;;;;;;;-1.11;100.00;103085.22;4979447;28;20053;-72
2022/01/11 03:06:26;;;;;;;239.65;34.70;;;;;;;-1.14;100.00;103094.84;4981973;28;20026;-72
2022/01/11 03:08:51;;;;;;;258.95;36.80;;;;;;;-0.93;100.00;103094.13;4977994;28;20034;-72
2022/01/11 03:11:19;;;;;;;134.88;19.92;;;;;;;-1.33;100.00;103112.28;4976225;28;20038;-72
2022/01/11 03:13:45;;;;;;;279.63;45.92;;;;;;;-1.25;100.00;103103.56;4977296;28;20037;-73
2022/01/11 03:16:15;;;;;;;293.30;39.10;;;;;;;-1.27;100.00;103102.69;4977574;28;20045;-70
2022/01/11 03:18:41;;;;;;;236.25;36.15;;;;;;;-1.01;100.00;103098.47;4979231;28;20126;-70
2022/01/11 03:21:06;;;;;;;258.92;35.63;;;;;;;-1.21;100.00;103107.09;4975371;28;20034;-70
2022/01/11 03:23:33;;;;;;;196.93;29.35;;;;;;;-1.36;100.00;103100.84;4978381;28;20141;-70
2022/01/11 03:26:01;;;;;;;273.98;35.85;;;;;;;-1.01;100.00;103106.38;4976421;28;20035;-70
2022/01/11 03:28:27;;;;;;;213.45;25.50;;;;;;;-1.26;100.00;103103.53;4977685;28;20037;-70
2022/01/11 03:30:53;;;;;;;279.45;53.20;;;;;;;-0.89;100.00;103098.56;4977392;28;20054;-70
2022/01/11 03:33:18;;;;;;;197.55;27.60;;;;;;;-1.08;100.00;103108.09;4979537;28;20532;-70
2022/01/11 03:35:44;;;;;;;255.32;31.80;;;;;;;-1.13;100.00;103107.16;4979005;28;20109;-70
2022/01/11 03:38:11;;;;;;;298.05;44.70;;;;;;;-1.07;100.00;103115.13;4975406;28;20113;-70
2022/01/11 03:40:37;;;;;;;267.45;36.83;;;;;;;-0.94;100.00;103106.44;4962216;28;20026;-70
2022/01/11 03:43:02;;;;;;;305.63;50.33;;;;;;;-1.07;100.00;103105.47;4983930;28;20037;-70
2022/01/11 03:45:28;;;;;;;295.67;42.83;;;;;;;-1.13;100.00;103102.78;4983250;28;20101;-70
2022/01/11 03:47:56;;;;;;;323.30;42.97;;;;;;;-1.09;100.00;103090.50;4983232;28;20030;-70
2022/01/11 03:50:22;;;;;;;276.33;34.63;;;;;;;-1.07;100.00;103101.94;4981616;28;20030;-72
2022/01/11 03:52:51;;;;;;;255.32;31.70;;;;;;;-1.00;100.00;103111.66;4980734;28;20030;-72
2022/01/11 03:55:21;;;;;;;233.93;32.92;;;;;;;-1.22;100.00;103100.06;4985066;28;20027;-72
2022/01/11 03:57:48;;;;;;;274.45;40.97;;;;;;;-1.07;100.00;103109.84;4964190;28;20027;-72
2022/01/11 04:00:16;;;;;;;253.90;32.10;;;;;;;-0.92;100.00;103109.94;4968511;28;20036;-72
2022/01/11 04:02:41;;;;;;;274.95;43.30;;;;;;;-0.93;100.00;103112.59;4984336;28;20030;-72
2022/01/11 04:05:07;;;;;;;201.48;27.48;;;;;;;-1.10;100.00;103116.00;4984593;28;20030;-72
2022/01/11 04:07:33;;;;;;;286.85;41.75;;;;;;;-0.95;100.00;103099.41;4984994;28;20026;-70
2022/01/11 04:09:58;;;;;;;247.45;38.03;;;;;;;-1.06;100.00;103108.97;4983731;28;20488;-71
2022/01/11 04:12:23;;;;;;;262.63;41.17;;;;;;;-0.88;100.00;103088.88;4977155;28;20059;-72
2022/01/11 04:14:49;;;;;;;135.60;21.77;;;;;;;-1.21;100.00;103108.00;4982518;28;20073;-73
2022/01/11 04:17:15;;;;;;;159.63;23.58;;;;;;;-1.12;100.00;103101.91;4985357;28;20140;-72
2022/01/11 04:19:41;;;;;;;277.20;42.40;;;;;;;-0.97;100.00;103103.78;4982140;28;20022;-73
2022/01/11 04:22:07;;;;;;;175.60;26.48;;;;;;;-1.12;100.00;103112.47;4980470;28;20105;-72
2022/01/11 04:24:32;;;;;;;249.63;39.78;;;;;;;-1.12;100.00;103117.75;4984483;28;20033;-72
2022/01/11 04:26:58;;;;;;;263.58;43.10;;;;;;;-1.16;100.00;103115.03;4982284;28;20068;-72
2022/01/11 04:29:23;;;;;;;314.83;48.78;;;;;;;-1.10;100.00;103113.34;4984803;28;20040;-72
2022/01/11 04:31:49;;;;;;;255.40;39.65;;;;;;;-1.16;100.00;103121.22;4980164;28;20896;-72
2022/01/11 04:34:14;;;;;;;286.77;52.70;;;;;;;-1.01;100.00;103107.28;4981596;28;20809;-72
2022/01/11 04:36:40;;;;;;;253.55;38.72;;;;;;;-1.10;100.00;103105.44;4981961;28;20491;-72
2022/01/11 04:39:08;;;;;;;220.95;35.00;;;;;;;-1.15;100.00;103125.63;4980361;28;20068;-72
2022/01/11 04:41:33;;;;;;;237.65;35.50;;;;;;;-1.14;100.00;103119.47;4968257;28;20027;-72
2022/01/11 04:43:59;;;;;;;219.93;47.97;;;;;;;-0.98;100.00;103098.47;4966587;28;20527;-72
2022/01/11 04:46:26;;;;;;;269.10;50.20;;;;;;;-1.08;100.00;103110.72;4980775;28;20030;-73
2022/01/11 04:48:52;;;;;;;153.93;26.92;;;;;;;-0.91;100.00;103116.13;4963166;28;20064;-73
2022/01/11 04:51:17;;;;;;;214.05;35.65;;;;;;;-1.16;100.00;103104.50;4966069;28;20034;-72
2022/01/11 04:53:42;;;;;;;237.02;41.35;;;;;;;-1.17;100.00;103122.09;4959279;28;20059;-70
2022/01/11 04:56:08;;;;;;;262.08;47.70;;;;;;;-1.25;100.00;103135.22;4985186;28;20030;-70
2022/01/11 04:58:35;;;;;;;243.35;47.33;;;;;;;-1.30;100.00;103109.66;4978741;28;20032;-70
2022/01/11 05:01:00;;;;;;;242.13;37.55;;;;;;;-1.27;100.00;103128.13;4973957;28;20300;-72
2022/01/11 05:03:26;;;;;;;273.98;43.53;;;;;;;-1.18;100.00;103128.22;4975172;28;20026;-72
2022/01/11 05:05:51;;;;;;;162.50;30.20;;;;;;;-1.41;100.00;103117.47;4976621;28;20067;-72
2022/01/11 05:08:17;;;;;;;155.02;27.98;;;;;;;-1.12;100.00;103124.75;4979385;28;20036;-73
2022/01/11 05:10:42;;;;;;;287.40;54.88;;;;;;;-1.27;100.00;103118.50;4972634;28;20625;-73
2022/01/11 05:13:12;;;;;;;205.43;38.33;;;;;;;-1.33;100.00;103123.69;4980540;28;20026;-73
2022/01/11 05:15:38;;;;;;;195.88;36.67;;;;;;;-1.17;100.00;103123.81;4963382;28;20030;-72
2022/01/11 05:18:03;;;;;;;240.48;44.25;;;;;;;-1.26;100.00;103125.53;4968387;28;20053;-73
2022/01/11 05:20:28;;;;;;;205.80;40.58;;;;;;;-1.20;100.00;103103.59;4980668;28;20478;-72
2022/01/11 05:22:54;;;;;;;231.10;41.33;;;;;;;-1.35;100.00;103114.91;4965160;28;20069;-72
2022/01/11 05:25:20;;;;;;;158.05;29.00;;;;;;;-1.23;100.00;103111.47;4982461;28;20109;-72
2022/01/11 05:27:46;;;;;;;235.05;42.40;;;;;;;-1.28;100.00;103108.81;4964119;28;20037;-72
2022/01/11 05:30:12;;;;;;;157.50;32.13;;;;;;;-1.51;100.00;103120.03;4981555;28;20030;-72
2022/01/11 05:32:37;;;;;;;192.88;34.60;;;;;;;-1.51;100.00;103119.13;4979307;28;20579;-73
2022/01/11 05:35:04;;;;;;;128.18;24.95;;;;;;;-1.57;100.00;103117.34;4964648;28;20073;-72
2022/01/11 05:37:29;;;;;;;176.18;37.65;;;;;;;-1.26;100.00;103122.00;4977867;28;20552;-72
2022/01/11 05:39:55;;;;;;;145.98;28.17;;;;;;;-1.41;100.00;103120.09;4976141;28;20281;-72
2022/01/11 05:42:20;;;;;;;165.80;29.02;;;;;;;-1.51;100.00;103121.78;4964337;28;21148;-70
2022/01/11 05:44:46;;;;;;;181.80;35.17;;;;;;;-1.36;100.00;103111.41;4965679;28;20026;-70
2022/01/11 05:47:11;;;;;;;174.77;36.42;;;;;;;-1.56;100.00;103103.31;4975102;28;20046;-72
2022/01/11 05:49:36;;;;;;;146.10;29.98;;;;;;;-1.53;100.00;103110.34;4978310;28;20062;-74
2022/01/11 05:52:02;;;;;;;176.52;32.17;;;;;;;-1.33;100.00;103114.94;4977208;28;20057;-74
2022/01/11 05:54:28;;;;;;;161.15;32.38;;;;;;;-1.25;100.00;103119.38;4975710;28;20038;-74
2022/01/11 05:56:53;;;;;;;164.43;35.08;;;;;;;-1.29;100.00;103119.34;4980610;28;20268;-77
2022/01/11 05:59:18;;;;;;;158.68;31.42;;;;;;;-1.39;100.00;103132.44;4979280;28;20551;-72
2022/01/11 06:01:44;;;;;;;73.63;17.63;;;;;;;-1.52;100.00;103125.28;4961033;28;20509;-73
2022/01/11 06:04:09;;;;;;;154.80;30.77;;;;;;;-1.41;100.00;103139.47;4970851;28;20026;-73
2022/01/11 06:06:34;;;;;;;205.68;40.75;;;;;;;-1.24;100.00;103131.69;4966674;28;20164;-74
2022/01/11 06:09:02;;;;;;;128.07;26.13;;;;;;;-1.52;100.00;103117.38;4974001;28;20586;-74
2022/01/11 06:11:28;;;;;;;226.65;42.47;;;;;;;-1.17;100.00;103130.00;4992023;28;20044;-74
2022/01/11 06:13:53;;;;;;;179.60;34.22;;;;;;;-1.21;100.00;103131.72;4976019;28;20042;-77
2022/01/11 06:16:21;;;;;;;205.70;38.97;;;;;;;-1.31;100.00;103135.16;4977558;28;20041;-71
2022/01/11 06:18:46;;;;;;;99.22;20.88;;;;;;;-1.42;100.00;103149.97;4974047;28;20026;-72
2022/01/11 06:21:11;;;;;;;186.38;36.97;;;;;;;-1.52;100.00;103144.63;4964688;28;20598;-74
2022/01/11 06:23:37;;;;;;;208.73;44.30;;;;;;;-1.11;100.00;103158.16;4977063;28;20105;-74
2022/01/11 06:26:02;;;;;;;198.48;37.83;;;;;;;-1.16;100.00;103167.78;4982538;28;20070;-74
2022/01/11 06:28:28;;;;;;;184.82;39.08;;;;;;;-1.23;100.00;103172.13;4980300;28;20092;-75
2022/01/11 06:30:53;;;;;;;152.10;28.27;;;;;;;-1.26;100.00;103180.88;4964066;28;20040;-74
2022/01/11 06:33:18;;;;;;;104.18;22.83;;;;;;;-1.30;100.00;103188.72;4979245;28;20493;-73
2022/01/11 06:35:44;;;;;;;118.45;24.40;;;;;;;-1.55;100.00;103170.94;4964944;28;20182;-74
2022/01/11 06:38:09;;;;;;;177.20;33.08;;;;;;;-1.33;100.00;103184.31;4979241;28;20520;-74
2022/01/11 06:40:34;;;;;;;34.45;11.48;;;;;;;-1.38;100.00;103183.38;4979182;28;20454;-74
2022/01/11 06:43:00;;;;;;;119.32;23.55;;;;;;;-1.41;100.00;103194.81;4977573;28;20488;-74
2022/01/11 06:45:25;;;;;;;118.72;24.10;;;;;;;-1.50;100.00;103178.88;4976364;28;20023;-76
2022/01/11 06:47:51;;;;;;;195.30;43.90;;;;;;;-1.36;100.00;103179.91;4981731;28;20030;-75
2022/01/11 06:50:17;;;;;;;160.00;30.95;;;;;;;-1.27;100.00;103188.75;4978601;28;20353;-73
2022/01/11 06:52:43;;;;;;;85.93;21.63;;;;;;;-1.33;100.00;103191.38;4982301;28;20033;-73
2022/01/11 06:55:09;;;;;;;160.55;32.50;;;;;;;-1.43;100.00;103198.25;4978584;28;20080;-75
2022/01/11 06:57:35;;;;;;;164.93;38.53;;;;;;;-1.46;100.00;103195.63;4980808;28;20069;-74
2022/01/11 07:00:01;;;;;;;107.55;23.52;;;;;;;-1.42;100.00;103197.41;4996607;28;20096;-75
2022/01/11 07:02:26;;;;;;;104.75;24.42;;;;;;;-1.31;100.00;103179.97;4978152;28;20489;-75
2022/01/11 07:04:51;;;;;;;146.10;32.85;;;;;;;-1.47;100.00;103189.47;4978799;28;20030;-75
2022/01/11 07:07:17;;;;;;;137.63;29.98;;;;;;;-1.40;100.00;103198.31;4962793;28;20035;-75
2022/01/11 07:09:42;;;;;;;134.65;32.45;;;;;;;-1.46;100.00;103191.22;4979392;28;20022;-75
2022/01/11 07:12:08;;;;;;;83.78;22.25;;;;;;;-1.69;100.00;103212.03;4975101;28;20065;-75
2022/01/11 07:14:33;;;;;;;105.38;24.60;;;;;;;-1.67;100.00;103210.31;4977377;28;20107;-75
2022/01/11 07:16:58;;;;;;;124.60;28.73;;;;;;;-1.62;100.00;103208.63;4985605;28;20026;-74
2022/01/11 07:19:24;;;;;;;143.85;34.47;;;;;;;-1.66;100.00;103196.28;4975187;28;20034;-75
2022/01/11 07:21:49;;;;;;;92.78;24.17;;;;;;;-1.82;100.00;103216.28;4984277;28;20034;-75
2022/01/11 07:24:16;;;;;;;88.00;22.52;;;;;;;-1.88;100.00;103218.84;4986281;28;20272;-74
2022/01/11 07:26:41;;;;;;;99.20;26.88;;;;;;;-1.66;100.00;103227.88;4984935;28;20054;-75
2022/01/11 07:29:07;;;;;;;177.35;42.15;;;;;;;-1.59;100.00;103229.72;4967552;28;20179;-74
2022/01/11 07:31:34;;;;;;;117.63;27.98;;;;;;;-1.88;100.00;103239.91;4982308;28;20046;-75
2022/01/11 07:34:00;;;;;;;83.18;23.50;;;;;;;-1.70;100.00;103228.72;4990810;28;20025;-74
2022/01/11 07:36:25;;;;;;;151.43;33.60;;;;;;;-1.76;100.00;103237.44;4973609;28;20471;-75
2022/01/11 07:38:51;;;;;;;104.43;27.35;;;;;;;-1.74;100.00;103240.09;4990418;28;20039;-74
2022/01/11 07:41:17;;;;;;;129.38;29.92;;;;;;;-1.84;100.00;103239.97;4993348;28;20045;-75
2022/01/11 07:43:43;;;;;;;162.85;36.60;;;;;;;-1.57;100.00;103248.19;4967920;28;20054;-73
2022/01/11 07:46:08;;;;;;;162.85;34.17;;;;;;;-1.67;100.00;103247.19;4980218;28;20117;-73
2022/01/11 07:48:33;;;;;;;114.72;30.90;;;;;;;-1.70;100.00;103241.88;4991585;28;20738;-73
2022/01/11 07:50:59;;;;;;;156.73;37.85;;;;;;;-1.74;100.00;103245.38;4977950;28;20061;-74
2022/01/11 07:53:24;;;;;;;93.55;23.23;;;;;;;-1.76;100.00;103228.66;4983877;28;20050;-75
2022/01/11 07:55:49;;;;;;;136.38;32.42;;;;;;;-1.63;100.00;103246.38;4979718;28;20417;-74
2022/01/11 07:58:15;;;;;;;138.23;36.17;;;;;;;-1.78;100.00;103252.31;4982179;28;20467;-75
2022/01/11 08:00:40;;;;;;;94.57;24.92;;;;;;;-1.84;100.00;103254.88;4979836;28;20041;-75
2022/01/11 08:03:05;;;;;;;121.32;32.17;;;;;;;-1.54;100.00;103230.69;4977990;28;20035;-75
2022/01/11 08:05:31;;;;;;;112.80;31.33;;;;;;;-1.56;100.00;103256.13;4965896;28;20130;-75
2022/01/11 08:07:56;;;;;;;110.20;28.00;;;;;;;-1.61;100.00;103241.13;4984044;28;20061;-75
2022/01/11 08:10:21;;;;;;;84.25;25.60;;;;;;;-1.78;100.00;103235.66;4982553;28;20069;-75
2022/01/11 08:12:47;;;;;;;109.05;30.38;;;;;;;-1.75;100.00;103251.50;5001369;28;20422;-75
2022/01/11 08:15:12;;;;;;;76.53;21.65;;;;;;;-1.41;100.00;103251.88;4979159;28;20030;-75
2022/01/11 08:17:38;;;;;;;131.10;32.92;;;;;;;-1.07;100.00;103245.22;4980608;28;20026;-75
2022/01/11 08:20:04;;;;;;;96.60;27.02;;;;;;;-1.26;100.00;103251.16;4986778;28;20053;-75
2022/01/11 08:22:29;;;;;;;84.15;26.50;;;;;;;-1.12;100.00;103246.94;4975849;28;20460;-75
2022/01/11 08:24:55;;;;;;;88.18;25.33;;;;;;;-1.09;100.00;103251.34;4977650;28;20031;-75
2022/01/11 08:27:22;;;;;;;92.68;27.45;;;;;;;-1.02;100.00;103242.63;4979697;28;20047;-75
2022/01/11 08:29:48;;;;;;;66.40;21.73;;;;;;;-0.82;100.00;103252.47;4994131;28;20037;-76
2022/01/11 08:32:13;;;;;;;67.72;22.42;;;;;;;-0.58;100.00;103253.53;4980695;28;20037;-74
2022/01/11 08:34:39;;;;;;;90.82;27.15;;;;;;;-0.33;100.00;103255.47;4992661;28;20428;-74
2022/01/11 08:37:05;;;;;;;85.43;27.40;;;;;;;-0.12;100.00;103247.69;4986425;28;20452;-74
2022/01/11 08:39:30;;;;;;;74.82;23.15;;;;;;;-0.17;100.00;103235.34;4992657;28;20137;-73
2022/01/11 08:41:56;;;;;;;59.40;19.13;;;;;;;0.02;100.00;103246.00;4985092;28;20105;-73
2022/01/11 08:44:23;;;;;;;42.58;16.38;;;;;;;0.03;100.00;103246.91;4967524;28;20034;-72
2022/01/11 08:46:49;;;;;;;71.53;24.33;;;;;;;0.31;100.00;103258.47;4985573;28;20034;-72
2022/01/11 08:49:16;;;;;;;54.30;20.70;;;;;;;-0.02;100.00;103247.75;4983043;28;20299;-72
2022/01/11 08:51:41;;;;;;;75.40;26.90;;;;;;;0.34;100.00;103262.91;4973125;28;20037;-73
2022/01/11 08:54:07;;;;;;;48.13;19.85;;;;;;;-0.16;100.00;103244.16;4982499;28;20019;-74
2022/01/11 08:56:33;;;;;;;62.92;22.98;;;;;;;0.31;100.00;103257.59;4991396;28;20053;-73
2022/01/11 08:58:59;;;;;;;72.13;28.10;;;;;;;0.23;100.00;103239.94;4982147;28;20031;-73
2022/01/11 09:01:28;;;;;;;72.63;28.05;;;;;;;0.13;100.00;103254.00;4984585;28;20026;-73
2022/01/11 09:03:53;;;;;;;74.95;27.52;;;;;;;0.09;100.00;103255.72;4964533;28;20026;-73
2022/01/11 09:06:19;;;;;;;70.60;25.27;;;;;;;0.10;100.00;103269.84;4978355;28;20352;-73
2022/01/11 09:08:45;;;;;;;56.03;21.15;;;;;;;-0.35;100.00;103254.59;4968574;28;20038;-72
2022/01/11 09:11:10;;;;;;;58.80;20.40;;;;;;;0.06;100.00;103254.84;4991762;28;20038;-73
2022/01/11 09:13:37;;;;;;;46.58;19.70;;;;;;;0.22;100.00;103261.97;4964961;28;20030;-72
2022/01/11 09:16:04;;;;;;;59.17;21.48;;;;;;;0.29;100.00;103261.13;4967130;28;20029;-73
2022/01/11 09:18:30;;;;;;;67.80;25.13;;;;;;;0.31;100.00;103258.47;4983561;28;20313;-73
2022/01/11 09:21:00;;;;;;;55.03;20.52;;;;;;;0.38;100.00;103260.25;4982405;28;20034;-72
2022/01/11 09:23:25;;;;;;;54.45;21.58;;;;;;;0.74;100.00;103266.56;4972883;28;20026;-72
2022/01/11 09:25:51;;;;;;;52.60;22.20;;;;;;;0.75;100.00;103267.44;4970319;28;20033;-73
2022/01/11 09:28:16;;;;;;;67.90;27.73;;;;;;;0.74;100.00;103261.28;4985489;28;20088;-73
2022/01/11 09:30:42;;;;;;;53.97;19.42;;;;;;;0.93;100.00;103274.53;4964590;28;20033;-73
2022/01/11 09:33:08;;;;;;;54.67;21.05;;;;;;;1.33;100.00;103286.91;4993447;28;20040;-72
2022/01/11 09:35:33;;;;;;;60.03;22.88;;;;;;;1.42;100.00;103289.59;4966077;28;20026;-72
2022/01/11 09:37:58;;;;;;;60.08;23.63;;;;;;;1.39;100.00;103291.31;4967298;28;20034;-74
2022/01/11 09:40:23;;;;;;;60.83;24.95;;;;;;;1.52;100.00;103289.56;4981709;28;20396;-72
2022/01/11 09:42:49;;;;;;;52.88;19.52;;;;;;;1.65;100.00;103304.56;4971815;28;20522;-72
2022/01/11 09:45:15;;;;;;;46.05;19.20;;;;;;;1.95;100.00;103308.06;4980481;28;20114;-73
2022/01/11 09:47:40;;;;;;;59.25;25.52;;;;;;;2.52;98.78;103283.13;4982461;28;20052;-73
2022/01/11 09:50:10;;;;;;;51.08;21.70;;;;;;;2.55;97.73;103291.97;4968348;28;20030;-73
2022/01/11 09:52:36;;;;;;;52.38;22.05;;;;;;;2.31;98.47;103284.13;4970435;28;20046;-75
2022/01/11 09:55:03;;;;;;;49.65;21.25;;;;;;;2.52;97.95;103297.28;4980394;28;20492;-73
2022/01/11 09:57:28;;;;;;;56.08;22.77;;;;;;;2.59;96.86;103300.78;4965877;28;20038;-72
2022/01/11 09:59:54;;;;;;;47.92;19.80;;;;;;;2.33;96.44;103293.81;4968274;28;20461;-73
2022/01/11 10:02:19;;;;;;;52.13;19.27;;;;;;;2.64;96.79;103301.66;4961590;28;20537;-72
2022/01/11 10:04:45;;;;;;;63.78;20.13;;;;;;;2.69;97.56;103314.88;4990677;28;20041;-71
2022/01/11 10:07:10;;;;;;;49.30;23.08;;;;;;;2.91;96.42;103301.53;4979824;28;20100;-72
2022/01/11 10:09:48;;;;;;;55.53;23.65;;;;;;;2.90;95.28;103297.09;4983577;28;20346;-73
2022/01/11 10:12:15;;;;;;;51.45;20.33;;;;;;;3.26;93.68;103298.63;4964569;28;20037;-72
2022/01/11 10:14:52;;;;;;;57.33;24.58;;;;;;;3.67;93.10;103290.31;4992239;28;20037;-73
2022/01/11 10:17:27;;;;;;;49.90;19.67;;;;;;;3.35;91.61;103283.50;4980367;28;20030;-72
2022/01/11 10:20:20;;;;;;;49.55;22.15;;;;;;;3.16;92.09;103296.91;4986314;28;20035;-74
2022/01/11 10:22:47;;;;;;;48.22;19.73;;;;;;;2.79;96.55;103287.41;4966716;28;20385;-73
2022/01/11 10:25:12;;;;;;;58.20;25.60;;;;;;;2.98;94.29;103296.16;4979681;28;20046;-73
2022/01/11 10:27:38;;;;;;;58.80;22.58;;;;;;;2.61;95.69;103282.22;4972018;28;20036;-73
2022/01/11 10:30:09;;;;;;;45.35;19.23;;;;;;;2.56;96.03;103292.84;4982220;28;20057;-74
2022/01/11 10:32:39;;;;;;;52.22;21.60;;;;;;;2.44;96.41;103277.88;4983118;28;20124;-73
2022/01/11 10:35:17;;;;;;;56.20;21.98;;;;;;;2.23;98.41;103284.16;4979007;28;20059;-73
2022/01/11 10:37:55;;;;;;;43.50;17.02;;;;;;;1.90;99.18;103284.22;4986436;28;20034;-72
2022/01/11 10:40:42;;;;;;;51.45;21.70;;;;;;;2.02;100.00;103293.03;4998346;28;20041;-72
2022/01/11 10:43:16;;;;;;;45.00;17.58;;;;;;;1.80;100.00;103286.00;4973709;28;20425;-73
2022/01/11 10:45:50;;;;;;;51.33;22.80;;;;;;;2.21;100.00;103299.19;4979287;28;20037;-74
2022/01/11 10:48:24;;;;;;;54.63;19.77;;;;;;;2.12;99.89;103288.59;4981546;28;20034;-74
2022/01/11 10:50:52;;;;;;;52.42;18.67;;;;;;;2.08;99.25;103277.13;4966261;28;20117;-73
2022/01/11 10:53:25;;;;;;;60.28;23.58;;;;;;;2.43;98.40;103289.34;4979961;28;20034;-73
2022/01/11 10:55:53;;;;;;;53.25;21.98;;;;;;;2.33;100.00;103285.88;4966978;28;20025;-73
2022/01/11 10:58:18;;;;;;;62.05;25.70;;;;;;;2.33;100.00;103288.50;4977983;28;20030;-75